sensor_id;sensor_type;location;lat;lon;timestamp;P1;durP1;ratioP1;P2;durP2;ratioP2
29026;SDS011;16120;48.608;9.092;2022-09-09T00:02:01;151.53;;;78.47;;
29026;SDS011;16120;48.608;9.092;2022-09-09T00:05:59;203.43;;;171.47;;
29026;SDS011;16120;48.608;9.092;2022-09-09T00:09:59;186.50;;;140.70;;
29026;SDS011;16120;48.608;9.092;2022-09-09T00:13:57;174.13;;;109.87;;
29026;SDS011;16120;48.608;9.092;2022-09-09T00:17:57;143.73;;;68.17;;
29026;SDS011;16120;48.608;9.092;2022-09-09T00:21:59;157.43;;;86.00;;
29026;SDS011;16120;48.608;9.092;2022-09-09T00:26:02;151.57;;;63.07;;
29026;SDS011;16120;48.608;9.092;2022-09-09T00:29:59;145.97;;;55.20;;
29026;SDS011;16120;48.608;9.092;2022-09-09T00:33:57;161.27;;;87.23;;
29026;SDS011;16120;48.608;9.092;2022-09-09T00:37:55;133.47;;;49.97;;
29026;SDS011;16120;48.608;9.092;2022-09-09T00:41:55;136.17;;;51.40;;
29026;SDS011;16120;48.608;9.092;2022-09-09T00:46:15;175.77;;;118.03;;
29026;SDS011;16120;48.608;9.092;2022-09-09T00:50:21;184.23;;;141.37;;
29026;SDS011;16120;48.608;9.092;2022-09-09T00:54:26;179.47;;;130.07;;
29026;SDS011;16120;48.608;9.092;2022-09-09T00:58:22;181.50;;;132.80;;
29026;SDS011;16120;48.608;9.092;2022-09-09T01:02:22;158.23;;;80.57;;
29026;SDS011;16120;48.608;9.092;2022-09-09T01:06:22;164.40;;;91.63;;
29026;SDS011;16120;48.608;9.092;2022-09-09T01:10:24;163.20;;;96.03;;
29026;SDS011;16120;48.608;9.092;2022-09-09T01:14:24;155.43;;;96.67;;
29026;SDS011;16120;48.608;9.092;2022-09-09T01:18:26;148.10;;;61.87;;
29026;SDS011;16120;48.608;9.092;2022-09-09T01:22:26;155.53;;;93.07;;
29026;SDS011;16120;48.608;9.092;2022-09-09T01:26:26;144.40;;;57.13;;
29026;SDS011;16120;48.608;9.092;2022-09-09T01:30:23;141.67;;;58.70;;
29026;SDS011;16120;48.608;9.092;2022-09-09T01:34:19;148.77;;;62.17;;
29026;SDS011;16120;48.608;9.092;2022-09-09T01:38:14;138.47;;;50.87;;
29026;SDS011;16120;48.608;9.092;2022-09-09T01:42:12;147.10;;;68.53;;
29026;SDS011;16120;48.608;9.092;2022-09-09T01:46:08;143.10;;;59.87;;
29026;SDS011;16120;48.608;9.092;2022-09-09T01:50:04;149.20;;;74.23;;
29026;SDS011;16120;48.608;9.092;2022-09-09T01:54:01;155.97;;;77.90;;
29026;SDS011;16120;48.608;9.092;2022-09-09T01:58:01;148.37;;;66.67;;
29026;SDS011;16120;48.608;9.092;2022-09-09T02:02:02;138.27;;;58.20;;
29026;SDS011;16120;48.608;9.092;2022-09-09T02:06:03;142.83;;;56.77;;
29026;SDS011;16120;48.608;9.092;2022-09-09T02:10:02;151.30;;;68.17;;
29026;SDS011;16120;48.608;9.092;2022-09-09T02:14:02;160.77;;;100.13;;
29026;SDS011;16120;48.608;9.092;2022-09-09T02:17:59;142.70;;;63.83;;
29026;SDS011;16120;48.608;9.092;2022-09-09T02:21:56;176.17;;;118.37;;
29026;SDS011;16120;48.608;9.092;2022-09-09T02:25:52;146.83;;;77.10;;
29026;SDS011;16120;48.608;9.092;2022-09-09T02:29:49;168.00;;;114.20;;
29026;SDS011;16120;48.608;9.092;2022-09-09T02:33:47;160.73;;;89.37;;
29026;SDS011;16120;48.608;9.092;2022-09-09T02:37:46;159.97;;;108.20;;
29026;SDS011;16120;48.608;9.092;2022-09-09T02:41:41;177.53;;;124.97;;
29026;SDS011;16120;48.608;9.092;2022-09-09T02:45:41;185.20;;;125.47;;
29026;SDS011;16120;48.608;9.092;2022-09-09T02:49:39;198.63;;;162.33;;
29026;SDS011;16120;48.608;9.092;2022-09-09T02:53:38;185.60;;;148.23;;
29026;SDS011;16120;48.608;9.092;2022-09-09T02:57:35;163.60;;;113.67;;
29026;SDS011;16120;48.608;9.092;2022-09-09T03:01:32;167.70;;;113.77;;
29026;SDS011;16120;48.608;9.092;2022-09-09T03:05:27;173.20;;;121.97;;
29026;SDS011;16120;48.608;9.092;2022-09-09T03:09:23;226.20;;;201.77;;
29026;SDS011;16120;48.608;9.092;2022-09-09T03:13:18;187.70;;;144.20;;
29026;SDS011;16120;48.608;9.092;2022-09-09T03:17:14;233.23;;;208.55;;
29026;SDS011;16120;48.608;9.092;2022-09-09T03:21:10;201.37;;;164.57;;
29026;SDS011;16120;48.608;9.092;2022-09-09T03:25:05;234.20;;;209.93;;
29026;SDS011;16120;48.608;9.092;2022-09-09T03:29:00;213.43;;;190.33;;
29026;SDS011;16120;48.608;9.092;2022-09-09T03:32:57;215.73;;;192.40;;
29026;SDS011;16120;48.608;9.092;2022-09-09T03:36:52;228.30;;;204.27;;
29026;SDS011;16120;48.608;9.092;2022-09-09T03:40:48;198.63;;;165.17;;
29026;SDS011;16120;48.608;9.092;2022-09-09T03:44:43;172.53;;;123.23;;
29026;SDS011;16120;48.608;9.092;2022-09-09T03:48:40;182.07;;;125.13;;
29026;SDS011;16120;48.608;9.092;2022-09-09T03:52:36;266.30;;;240.00;;
29026;SDS011;16120;48.608;9.092;2022-09-09T03:56:31;173.67;;;124.70;;
29026;SDS011;16120;48.608;9.092;2022-09-09T04:00:26;166.53;;;115.70;;
29026;SDS011;16120;48.608;9.092;2022-09-09T04:04:23;196.45;;;162.50;;
29026;SDS011;16120;48.608;9.092;2022-09-09T04:08:18;185.80;;;153.37;;
29026;SDS011;16120;48.608;9.092;2022-09-09T04:12:14;232.53;;;208.07;;
29026;SDS011;16120;48.608;9.092;2022-09-09T04:16:09;210.03;;;187.43;;
29026;SDS011;16120;48.608;9.092;2022-09-09T04:20:07;198.23;;;176.40;;
29026;SDS011;16120;48.608;9.092;2022-09-09T04:24:02;184.17;;;138.07;;
29026;SDS011;16120;48.608;9.092;2022-09-09T04:27:57;200.00;;;171.52;;
29026;SDS011;16120;48.608;9.092;2022-09-09T04:31:52;180.43;;;131.57;;
29026;SDS011;16120;48.608;9.092;2022-09-09T04:35:49;200.57;;;174.17;;
29026;SDS011;16120;48.608;9.092;2022-09-09T04:39:45;185.43;;;148.40;;
29026;SDS011;16120;48.608;9.092;2022-09-09T04:43:40;169.57;;;125.87;;
29026;SDS011;16120;48.608;9.092;2022-09-09T04:47:35;189.73;;;149.65;;
29026;SDS011;16120;48.608;9.092;2022-09-09T04:51:32;172.13;;;127.33;;
29026;SDS011;16120;48.608;9.092;2022-09-09T04:55:27;179.17;;;134.00;;
29026;SDS011;16120;48.608;9.092;2022-09-09T04:59:22;183.43;;;137.93;;
29026;SDS011;16120;48.608;9.092;2022-09-09T05:03:17;173.60;;;131.90;;
29026;SDS011;16120;48.608;9.092;2022-09-09T05:07:14;167.60;;;114.72;;
29026;SDS011;16120;48.608;9.092;2022-09-09T05:11:13;199.27;;;163.27;;
29026;SDS011;16120;48.608;9.092;2022-09-09T05:15:09;208.53;;;183.47;;
29026;SDS011;16120;48.608;9.092;2022-09-09T05:19:04;183.13;;;152.93;;
29026;SDS011;16120;48.608;9.092;2022-09-09T05:23:00;164.70;;;113.87;;
29026;SDS011;16120;48.608;9.092;2022-09-09T05:26:56;178.43;;;142.23;;
29026;SDS011;16120;48.608;9.092;2022-09-09T05:30:57;207.20;;;185.00;;
29026;SDS011;16120;48.608;9.092;2022-09-09T05:34:52;184.90;;;154.93;;
29026;SDS011;16120;48.608;9.092;2022-09-09T05:38:49;187.40;;;158.63;;
29026;SDS011;16120;48.608;9.092;2022-09-09T05:42:44;181.73;;;148.60;;
29026;SDS011;16120;48.608;9.092;2022-09-09T05:46:40;184.43;;;153.33;;
29026;SDS011;16120;48.608;9.092;2022-09-09T05:50:35;207.07;;;182.37;;
29026;SDS011;16120;48.608;9.092;2022-09-09T05:54:31;193.23;;;154.10;;
29026;SDS011;16120;48.608;9.092;2022-09-09T05:58:27;178.30;;;135.07;;
29026;SDS011;16120;48.608;9.092;2022-09-09T06:02:22;156.60;;;81.17;;
29026;SDS011;16120;48.608;9.092;2022-09-09T06:06:18;156.85;;;96.03;;
29026;SDS011;16120;48.608;9.092;2022-09-09T06:10:15;189.13;;;145.30;;
29026;SDS011;16120;48.608;9.092;2022-09-09T06:14:10;192.57;;;145.90;;
29026;SDS011;16120;48.608;9.092;2022-09-09T06:18:05;204.23;;;171.67;;
29026;SDS011;16120;48.608;9.092;2022-09-09T06:22:00;188.43;;;142.20;;
29026;SDS011;16120;48.608;9.092;2022-09-09T06:26:04;189.10;;;156.50;;
29026;SDS011;16120;48.608;9.092;2022-09-09T06:29:59;207.23;;;184.53;;
29026;SDS011;16120;48.608;9.092;2022-09-09T06:33:55;184.00;;;145.25;;
29026;SDS011;16120;48.608;9.092;2022-09-09T06:37:50;205.90;;;177.52;;
29026;SDS011;16120;48.608;9.092;2022-09-09T06:41:46;201.10;;;164.20;;
29026;SDS011;16120;48.608;9.092;2022-09-09T06:45:41;187.07;;;131.97;;
29026;SDS011;16120;48.608;9.092;2022-09-09T06:49:37;176.77;;;114.43;;
29026;SDS011;16120;48.608;9.092;2022-09-09T06:53:32;209.30;;;180.57;;
29026;SDS011;16120;48.608;9.092;2022-09-09T06:57:29;203.70;;;168.93;;
29026;SDS011;16120;48.608;9.092;2022-09-09T07:01:25;204.67;;;171.50;;
29026;SDS011;16120;48.608;9.092;2022-09-09T07:05:20;199.37;;;173.50;;
29026;SDS011;16120;48.608;9.092;2022-09-09T07:09:16;218.93;;;194.50;;
29026;SDS011;16120;48.608;9.092;2022-09-09T07:13:12;238.57;;;213.40;;
29026;SDS011;16120;48.608;9.092;2022-09-09T07:17:08;276.60;;;249.70;;
29026;SDS011;16120;48.608;9.092;2022-09-09T07:21:03;344.90;;;314.23;;
29026;SDS011;16120;48.608;9.092;2022-09-09T07:24:58;358.13;;;326.97;;
29026;SDS011;16120;48.608;9.092;2022-09-09T07:28:55;344.37;;;313.80;;
29026;SDS011;16120;48.608;9.092;2022-09-09T07:32:50;360.13;;;328.67;;
29026;SDS011;16120;48.608;9.092;2022-09-09T07:36:46;290.93;;;263.07;;
29026;SDS011;16120;48.608;9.092;2022-09-09T07:40:41;204.50;;;181.00;;
29026;SDS011;16120;48.608;9.092;2022-09-09T07:44:38;189.90;;;149.67;;
29026;SDS011;16120;48.608;9.092;2022-09-09T07:48:33;160.13;;;100.07;;
29026;SDS011;16120;48.608;9.092;2022-09-09T07:52:28;141.20;;;67.80;;
29026;SDS011;16120;48.608;9.092;2022-09-09T07:56:24;148.40;;;72.23;;
29026;SDS011;16120;48.608;9.092;2022-09-09T08:00:21;154.83;;;80.93;;
29026;SDS011;16120;48.608;9.092;2022-09-09T08:04:17;151.97;;;72.83;;
29026;SDS011;16120;48.608;9.092;2022-09-09T08:08:12;151.33;;;79.00;;
29026;SDS011;16120;48.608;9.092;2022-09-09T08:12:07;161.63;;;93.93;;
29026;SDS011;16120;48.608;9.092;2022-09-09T08:16:05;143.65;;;79.25;;
29026;SDS011;16120;48.608;9.092;2022-09-09T08:20:00;147.93;;;86.83;;
29026;SDS011;16120;48.608;9.092;2022-09-09T08:23:56;144.20;;;73.77;;
29026;SDS011;16120;48.608;9.092;2022-09-09T08:27:52;142.33;;;69.97;;
29026;SDS011;16120;48.608;9.092;2022-09-09T08:31:49;148.37;;;70.83;;
29026;SDS011;16120;48.608;9.092;2022-09-09T08:35:49;137.83;;;62.47;;
29026;SDS011;16120;48.608;9.092;2022-09-09T08:39:45;133.07;;;56.20;;
29026;SDS011;16120;48.608;9.092;2022-09-09T08:43:40;137.97;;;63.57;;
29026;SDS011;16120;48.608;9.092;2022-09-09T08:47:39;136.70;;;62.87;;
29026;SDS011;16120;48.608;9.092;2022-09-09T08:51:37;145.47;;;75.53;;
29026;SDS011;16120;48.608;9.092;2022-09-09T08:55:35;135.73;;;58.30;;
29026;SDS011;16120;48.608;9.092;2022-09-09T08:59:32;144.67;;;75.70;;
29026;SDS011;16120;48.608;9.092;2022-09-09T09:03:30;149.73;;;77.67;;
29026;SDS011;16120;48.608;9.092;2022-09-09T09:07:32;156.60;;;89.57;;
29026;SDS011;16120;48.608;9.092;2022-09-09T09:11:34;150.07;;;79.57;;
29026;SDS011;16120;48.608;9.092;2022-09-09T09:15:30;134.00;;;60.03;;
29026;SDS011;16120;48.608;9.092;2022-09-09T09:19:28;126.80;;;44.77;;
29026;SDS011;16120;48.608;9.092;2022-09-09T09:23:24;123.50;;;35.97;;
29026;SDS011;16120;48.608;9.092;2022-09-09T09:27:21;137.80;;;52.90;;
29026;SDS011;16120;48.608;9.092;2022-09-09T09:31:20;127.17;;;45.33;;
29026;SDS011;16120;48.608;9.092;2022-09-09T09:35:17;136.07;;;46.83;;
29026;SDS011;16120;48.608;9.092;2022-09-09T09:39:21;143.33;;;65.93;;
29026;SDS011;16120;48.608;9.092;2022-09-09T09:43:18;150.93;;;80.43;;
29026;SDS011;16120;48.608;9.092;2022-09-09T09:47:15;146.70;;;73.60;;
29026;SDS011;16120;48.608;9.092;2022-09-09T09:51:12;149.30;;;84.73;;
29026;SDS011;16120;48.608;9.092;2022-09-09T09:55:11;126.07;;;47.40;;
29026;SDS011;16120;48.608;9.092;2022-09-09T09:59:18;124.03;;;38.67;;
29026;SDS011;16120;48.608;9.092;2022-09-09T10:03:19;120.90;;;35.57;;
29026;SDS011;16120;48.608;9.092;2022-09-09T10:07:18;142.40;;;60.20;;
29026;SDS011;16120;48.608;9.092;2022-09-09T10:11:24;121.83;;;27.97;;
29026;SDS011;16120;48.608;9.092;2022-09-09T10:15:24;117.07;;;27.70;;
29026;SDS011;16120;48.608;9.092;2022-09-09T10:19:21;119.33;;;31.47;;
29026;SDS011;16120;48.608;9.092;2022-09-09T10:23:28;138.20;;;53.70;;
29026;SDS011;16120;48.608;9.092;2022-09-09T10:27:25;115.57;;;25.57;;
29026;SDS011;16120;48.608;9.092;2022-09-09T10:31:24;116.57;;;27.10;;
29026;SDS011;16120;48.608;9.092;2022-09-09T10:35:26;114.00;;;20.20;;
29026;SDS011;16120;48.608;9.092;2022-09-09T10:39:30;115.97;;;23.70;;
29026;SDS011;16120;48.608;9.092;2022-09-09T10:43:38;124.37;;;22.60;;
29026;SDS011;16120;48.608;9.092;2022-09-09T10:47:37;114.17;;;22.87;;
29026;SDS011;16120;48.608;9.092;2022-09-09T10:51:36;116.80;;;25.03;;
29026;SDS011;16120;48.608;9.092;2022-09-09T10:55:37;117.47;;;26.00;;
29026;SDS011;16120;48.608;9.092;2022-09-09T10:59:35;117.97;;;29.90;;
29026;SDS011;16120;48.608;9.092;2022-09-09T11:03:34;121.27;;;34.77;;
29026;SDS011;16120;48.608;9.092;2022-09-09T11:07:33;118.97;;;26.03;;
29026;SDS011;16120;48.608;9.092;2022-09-09T11:11:32;124.17;;;34.53;;
29026;SDS011;16120;48.608;9.092;2022-09-09T11:15:34;151.77;;;82.33;;
29026;SDS011;16120;48.608;9.092;2022-09-09T11:19:33;138.23;;;55.97;;
29026;SDS011;16120;48.608;9.092;2022-09-09T11:23:30;157.10;;;86.00;;
29026;SDS011;16120;48.608;9.092;2022-09-09T11:27:31;124.67;;;42.50;;
29026;SDS011;16120;48.608;9.092;2022-09-09T11:31:32;139.83;;;60.27;;
29026;SDS011;16120;48.608;9.092;2022-09-09T11:35:38;125.37;;;43.27;;
29026;SDS011;16120;48.608;9.092;2022-09-09T11:39:42;126.60;;;44.87;;
29026;SDS011;16120;48.608;9.092;2022-09-09T11:43:41;173.17;;;95.80;;
29026;SDS011;16120;48.608;9.092;2022-09-09T11:47:36;117.17;;;25.53;;
29026;SDS011;16120;48.608;9.092;2022-09-09T11:51:32;151.97;;;80.20;;
29026;SDS011;16120;48.608;9.092;2022-09-09T11:55:28;125.63;;;40.07;;
29026;SDS011;16120;48.608;9.092;2022-09-09T11:59:26;119.13;;;30.83;;
29026;SDS011;16120;48.608;9.092;2022-09-09T12:03:35;119.83;;;33.37;;
29026;SDS011;16120;48.608;9.092;2022-09-09T12:07:32;146.33;;;72.97;;
29026;SDS011;16120;48.608;9.092;2022-09-09T12:11:29;125.50;;;47.27;;
29026;SDS011;16120;48.608;9.092;2022-09-09T12:15:28;116.37;;;24.30;;
29026;SDS011;16120;48.608;9.092;2022-09-09T12:19:23;115.43;;;24.33;;
29026;SDS011;16120;48.608;9.092;2022-09-09T12:23:23;116.87;;;26.43;;
29026;SDS011;16120;48.608;9.092;2022-09-09T12:27:23;124.27;;;38.40;;
29026;SDS011;16120;48.608;9.092;2022-09-09T12:31:22;121.27;;;31.40;;
29026;SDS011;16120;48.608;9.092;2022-09-09T12:35:20;132.27;;;36.60;;
29026;SDS011;16120;48.608;9.092;2022-09-09T12:39:18;122.37;;;35.67;;
29026;SDS011;16120;48.608;9.092;2022-09-09T12:43:16;123.70;;;35.83;;
29026;SDS011;16120;48.608;9.092;2022-09-09T12:47:13;128.23;;;36.13;;
29026;SDS011;16120;48.608;9.092;2022-09-09T12:51:16;132.97;;;38.70;;
29026;SDS011;16120;48.608;9.092;2022-09-09T12:55:15;126.57;;;28.43;;
29026;SDS011;16120;48.608;9.092;2022-09-09T12:59:17;115.40;;;19.17;;
29026;SDS011;16120;48.608;9.092;2022-09-09T13:03:18;119.27;;;20.13;;
29026;SDS011;16120;48.608;9.092;2022-09-09T13:07:14;114.77;;;17.20;;
29026;SDS011;16120;48.608;9.092;2022-09-09T13:11:12;115.47;;;17.20;;
29026;SDS011;16120;48.608;9.092;2022-09-09T13:15:11;112.97;;;17.43;;
29026;SDS011;16120;48.608;9.092;2022-09-09T13:19:12;113.90;;;17.27;;
29026;SDS011;16120;48.608;9.092;2022-09-09T13:23:08;113.10;;;16.87;;
29026;SDS011;16120;48.608;9.092;2022-09-09T13:27:19;113.60;;;16.20;;
29026;SDS011;16120;48.608;9.092;2022-09-09T13:31:21;112.63;;;15.13;;
29026;SDS011;16120;48.608;9.092;2022-09-09T13:35:23;112.60;;;13.90;;
29026;SDS011;16120;48.608;9.092;2022-09-09T13:39:18;111.87;;;13.57;;
29026;SDS011;16120;48.608;9.092;2022-09-09T13:43:14;111.13;;;12.47;;
29026;SDS011;16120;48.608;9.092;2022-09-09T13:47:17;109.27;;;12.43;;
29026;SDS011;16120;48.608;9.092;2022-09-09T13:51:26;109.77;;;13.10;;
29026;SDS011;16120;48.608;9.092;2022-09-09T13:55:23;111.00;;;12.57;;
29026;SDS011;16120;48.608;9.092;2022-09-09T13:59:19;112.27;;;12.37;;
29026;SDS011;16120;48.608;9.092;2022-09-09T14:03:14;109.87;;;13.60;;
29026;SDS011;16120;48.608;9.092;2022-09-09T14:07:12;110.03;;;13.07;;
29026;SDS011;16120;48.608;9.092;2022-09-09T14:11:08;112.07;;;12.67;;
29026;SDS011;16120;48.608;9.092;2022-09-09T14:15:06;108.93;;;12.03;;
29026;SDS011;16120;48.608;9.092;2022-09-09T14:19:02;110.27;;;12.77;;
29026;SDS011;16120;48.608;9.092;2022-09-09T14:22:58;110.17;;;13.67;;
29026;SDS011;16120;48.608;9.092;2022-09-09T14:26:54;112.80;;;12.70;;
29026;SDS011;16120;48.608;9.092;2022-09-09T14:30:49;111.73;;;13.80;;
29026;SDS011;16120;48.608;9.092;2022-09-09T14:34:44;110.50;;;13.43;;
29026;SDS011;16120;48.608;9.092;2022-09-09T14:38:41;109.65;;;12.65;;
29026;SDS011;16120;48.608;9.092;2022-09-09T14:42:36;114.10;;;13.40;;
29026;SDS011;16120;48.608;9.092;2022-09-09T14:46:31;110.15;;;13.93;;
29026;SDS011;16120;48.608;9.092;2022-09-09T14:50:26;110.47;;;12.33;;
29026;SDS011;16120;48.608;9.092;2022-09-09T14:54:23;111.57;;;11.82;;
29026;SDS011;16120;48.608;9.092;2022-09-09T14:58:18;115.47;;;12.17;;
29026;SDS011;16120;48.608;9.092;2022-09-09T15:02:13;111.07;;;11.90;;
29026;SDS011;16120;48.608;9.092;2022-09-09T15:06:09;110.60;;;12.77;;
29026;SDS011;16120;48.608;9.092;2022-09-09T15:10:07;112.67;;;13.30;;
29026;SDS011;16120;48.608;9.092;2022-09-09T15:14:02;109.97;;;12.13;;
29026;SDS011;16120;48.608;9.092;2022-09-09T15:17:58;111.87;;;13.37;;
29026;SDS011;16120;48.608;9.092;2022-09-09T15:21:53;109.20;;;11.50;;
29026;SDS011;16120;48.608;9.092;2022-09-09T15:25:52;157.67;;;70.60;;
29026;SDS011;16120;48.608;9.092;2022-09-09T15:29:48;112.30;;;14.30;;
29026;SDS011;16120;48.608;9.092;2022-09-09T15:33:46;110.97;;;12.83;;
29026;SDS011;16120;48.608;9.092;2022-09-09T15:37:41;110.67;;;12.80;;
29026;SDS011;16120;48.608;9.092;2022-09-09T15:41:38;110.90;;;12.93;;
29026;SDS011;16120;48.608;9.092;2022-09-09T15:45:33;114.00;;;14.03;;
29026;SDS011;16120;48.608;9.092;2022-09-09T15:49:28;111.30;;;13.93;;
29026;SDS011;16120;48.608;9.092;2022-09-09T15:53:24;111.27;;;13.30;;
29026;SDS011;16120;48.608;9.092;2022-09-09T15:57:20;112.30;;;13.10;;
29026;SDS011;16120;48.608;9.092;2022-09-09T16:01:15;111.70;;;13.50;;
29026;SDS011;16120;48.608;9.092;2022-09-09T16:05:11;113.22;;;12.95;;
29026;SDS011;16120;48.608;9.092;2022-09-09T16:09:06;112.00;;;12.87;;
29026;SDS011;16120;48.608;9.092;2022-09-09T16:13:03;111.13;;;12.30;;
29026;SDS011;16120;48.608;9.092;2022-09-09T16:16:58;111.27;;;12.53;;
29026;SDS011;16120;48.608;9.092;2022-09-09T16:20:54;111.67;;;13.27;;
29026;SDS011;16120;48.608;9.092;2022-09-09T16:24:49;111.10;;;12.70;;
29026;SDS011;16120;48.608;9.092;2022-09-09T16:28:45;143.77;;;54.50;;
29026;SDS011;16120;48.608;9.092;2022-09-09T16:32:41;125.63;;;45.20;;
29026;SDS011;16120;48.608;9.092;2022-09-09T16:36:37;125.67;;;37.17;;
29026;SDS011;16120;48.608;9.092;2022-09-09T16:40:33;285.47;;;234.73;;
29026;SDS011;16120;48.608;9.092;2022-09-09T16:44:30;112.27;;;15.27;;
29026;SDS011;16120;48.608;9.092;2022-09-09T16:48:25;112.40;;;14.80;;
29026;SDS011;16120;48.608;9.092;2022-09-09T16:52:20;110.70;;;15.35;;
29026;SDS011;16120;48.608;9.092;2022-09-09T16:56:16;111.37;;;15.73;;
29026;SDS011;16120;48.608;9.092;2022-09-09T17:00:13;112.40;;;17.43;;
29026;SDS011;16120;48.608;9.092;2022-09-09T17:04:10;112.83;;;15.70;;
29026;SDS011;16120;48.608;9.092;2022-09-09T17:08:05;112.90;;;17.47;;
29026;SDS011;16120;48.608;9.092;2022-09-09T17:12:01;529.90;;;474.23;;
29026;SDS011;16120;48.608;9.092;2022-09-09T17:15:58;137.10;;;67.43;;
29026;SDS011;16120;48.608;9.092;2022-09-09T17:19:53;116.70;;;26.50;;
29026;SDS011;16120;48.608;9.092;2022-09-09T17:23:48;110.30;;;17.20;;
29026;SDS011;16120;48.608;9.092;2022-09-09T17:27:44;112.73;;;14.47;;
29026;SDS011;16120;48.608;9.092;2022-09-09T17:31:40;113.87;;;19.30;;
29026;SDS011;16120;48.608;9.092;2022-09-09T17:35:35;114.27;;;21.87;;
29026;SDS011;16120;48.608;9.092;2022-09-09T17:39:31;114.23;;;21.93;;
29026;SDS011;16120;48.608;9.092;2022-09-09T17:43:26;118.73;;;29.47;;
29026;SDS011;16120;48.608;9.092;2022-09-09T17:47:22;119.13;;;28.85;;
29026;SDS011;16120;48.608;9.092;2022-09-09T17:51:18;115.60;;;22.87;;
29026;SDS011;16120;48.608;9.092;2022-09-09T17:55:14;118.13;;;26.37;;
29026;SDS011;16120;48.608;9.092;2022-09-09T17:59:10;117.93;;;20.70;;
29026;SDS011;16120;48.608;9.092;2022-09-09T18:03:07;120.50;;;28.60;;
29026;SDS011;16120;48.608;9.092;2022-09-09T18:07:02;120.17;;;28.30;;
29026;SDS011;16120;48.608;9.092;2022-09-09T18:10:57;120.70;;;30.57;;
29026;SDS011;16120;48.608;9.092;2022-09-09T18:14:52;117.60;;;23.20;;
29026;SDS011;16120;48.608;9.092;2022-09-09T18:18:49;113.20;;;16.17;;
29026;SDS011;16120;48.608;9.092;2022-09-09T18:22:45;117.87;;;16.10;;
29026;SDS011;16120;48.608;9.092;2022-09-09T18:26:40;114.87;;;20.17;;
29026;SDS011;16120;48.608;9.092;2022-09-09T18:30:37;117.00;;;20.33;;
29026;SDS011;16120;48.608;9.092;2022-09-09T18:34:34;114.50;;;17.87;;
29026;SDS011;16120;48.608;9.092;2022-09-09T18:38:30;117.40;;;24.20;;
29026;SDS011;16120;48.608;9.092;2022-09-09T18:42:26;113.50;;;14.83;;
29026;SDS011;16120;48.608;9.092;2022-09-09T18:46:21;116.97;;;20.27;;
29026;SDS011;16120;48.608;9.092;2022-09-09T18:50:18;114.43;;;18.10;;
29026;SDS011;16120;48.608;9.092;2022-09-09T18:54:14;114.77;;;19.53;;
29026;SDS011;16120;48.608;9.092;2022-09-09T18:58:10;136.73;;;43.47;;
29026;SDS011;16120;48.608;9.092;2022-09-09T19:02:05;120.87;;;23.20;;
29026;SDS011;16120;48.608;9.092;2022-09-09T19:06:02;133.80;;;34.50;;
29026;SDS011;16120;48.608;9.092;2022-09-09T19:09:58;125.27;;;40.77;;
29026;SDS011;16120;48.608;9.092;2022-09-09T19:13:53;131.27;;;48.23;;
29026;SDS011;16120;48.608;9.092;2022-09-09T19:17:49;130.93;;;49.20;;
29026;SDS011;16120;48.608;9.092;2022-09-09T19:21:45;130.37;;;46.10;;
29026;SDS011;16120;48.608;9.092;2022-09-09T19:25:41;123.23;;;36.33;;
29026;SDS011;16120;48.608;9.092;2022-09-09T19:29:36;135.10;;;46.67;;
29026;SDS011;16120;48.608;9.092;2022-09-09T19:33:31;129.37;;;33.50;;
29026;SDS011;16120;48.608;9.092;2022-09-09T19:37:28;120.27;;;25.77;;
29026;SDS011;16120;48.608;9.092;2022-09-09T19:41:24;122.43;;;33.07;;
29026;SDS011;16120;48.608;9.092;2022-09-09T19:45:20;123.77;;;31.57;;
29026;SDS011;16120;48.608;9.092;2022-09-09T19:49:15;124.03;;;31.27;;
29026;SDS011;16120;48.608;9.092;2022-09-09T19:53:12;126.20;;;31.37;;
29026;SDS011;16120;48.608;9.092;2022-09-09T19:57:07;119.40;;;27.77;;
29026;SDS011;16120;48.608;9.092;2022-09-09T20:01:06;125.40;;;39.33;;
29026;SDS011;16120;48.608;9.092;2022-09-09T20:05:02;118.47;;;23.97;;
29026;SDS011;16120;48.608;9.092;2022-09-09T20:08:58;123.93;;;35.93;;
29026;SDS011;16120;48.608;9.092;2022-09-09T20:12:54;120.47;;;27.70;;
29026;SDS011;16120;48.608;9.092;2022-09-09T20:16:49;123.33;;;29.80;;
29026;SDS011;16120;48.608;9.092;2022-09-09T20:20:44;134.57;;;46.43;;
29026;SDS011;16120;48.608;9.092;2022-09-09T20:24:41;121.00;;;23.43;;
29026;SDS011;16120;48.608;9.092;2022-09-09T20:28:36;123.57;;;32.93;;
29026;SDS011;16120;48.608;9.092;2022-09-09T20:32:32;117.77;;;21.73;;
29026;SDS011;16120;48.608;9.092;2022-09-09T20:36:28;118.30;;;23.40;;
29026;SDS011;16120;48.608;9.092;2022-09-09T20:40:25;117.23;;;19.70;;
29026;SDS011;16120;48.608;9.092;2022-09-09T20:44:21;123.57;;;25.23;;
29026;SDS011;16120;48.608;9.092;2022-09-09T20:48:16;116.90;;;19.07;;
29026;SDS011;16120;48.608;9.092;2022-09-09T20:52:11;118.97;;;21.13;;
29026;SDS011;16120;48.608;9.092;2022-09-09T20:56:08;120.23;;;26.17;;
29026;SDS011;16120;48.608;9.092;2022-09-09T21:00:04;120.63;;;24.93;;
29026;SDS011;16120;48.608;9.092;2022-09-09T21:03:59;119.83;;;23.80;;
29026;SDS011;16120;48.608;9.092;2022-09-09T21:07:54;125.60;;;26.73;;
29026;SDS011;16120;48.608;9.092;2022-09-09T21:11:51;123.67;;;19.87;;
29026;SDS011;16120;48.608;9.092;2022-09-09T21:15:46;119.57;;;21.23;;
29026;SDS011;16120;48.608;9.092;2022-09-09T21:19:42;120.90;;;26.20;;
29026;SDS011;16120;48.608;9.092;2022-09-09T21:23:37;121.77;;;28.13;;
29026;SDS011;16120;48.608;9.092;2022-09-09T21:27:33;120.57;;;26.25;;
29026;SDS011;16120;48.608;9.092;2022-09-09T21:31:29;126.53;;;38.63;;
29026;SDS011;16120;48.608;9.092;2022-09-09T21:35:24;125.37;;;35.03;;
29026;SDS011;16120;48.608;9.092;2022-09-09T21:39:19;128.03;;;40.00;;
29026;SDS011;16120;48.608;9.092;2022-09-09T21:43:17;135.67;;;37.20;;
29026;SDS011;16120;48.608;9.092;2022-09-09T21:47:12;132.27;;;37.00;;
29026;SDS011;16120;48.608;9.092;2022-09-09T21:51:08;141.80;;;68.55;;
29026;SDS011;16120;48.608;9.092;2022-09-09T21:55:04;153.93;;;80.80;;
29026;SDS011;16120;48.608;9.092;2022-09-09T21:59:01;144.83;;;80.47;;
29026;SDS011;16120;48.608;9.092;2022-09-09T22:02:57;155.20;;;96.50;;
29026;SDS011;16120;48.608;9.092;2022-09-09T22:06:52;145.33;;;77.87;;
29026;SDS011;16120;48.608;9.092;2022-09-09T22:10:47;147.60;;;71.83;;
29026;SDS011;16120;48.608;9.092;2022-09-09T22:14:44;166.30;;;109.57;;
29026;SDS011;16120;48.608;9.092;2022-09-09T22:18:39;160.53;;;116.57;;
29026;SDS011;16120;48.608;9.092;2022-09-09T22:22:35;153.20;;;95.37;;
29026;SDS011;16120;48.608;9.092;2022-09-09T22:26:31;160.27;;;96.50;;
29026;SDS011;16120;48.608;9.092;2022-09-09T22:30:28;141.90;;;69.27;;
29026;SDS011;16120;48.608;9.092;2022-09-09T22:34:23;140.97;;;56.03;;
29026;SDS011;16120;48.608;9.092;2022-09-09T22:38:19;149.03;;;72.93;;
29026;SDS011;16120;48.608;9.092;2022-09-09T22:42:14;147.47;;;87.40;;